sensor_id;sensor_type;location;lat;lon;timestamp;P1;durP1;ratioP1;P2;durP2;ratioP2
55288;SDS011;41154;45.394;5.734;2023-04-16T00:02:24;3.63;;;2.20;;
55288;SDS011;41154;45.394;5.734;2023-04-16T00:04:50;6.15;;;2.20;;
55288;SDS011;41154;45.394;5.734;2023-04-16T00:07:16;3.67;;;2.08;;
55288;SDS011;41154;45.394;5.734;2023-04-16T00:09:41;3.15;;;1.98;;
55288;SDS011;41154;45.394;5.734;2023-04-16T00:12:07;3.20;;;1.83;;
55288;SDS011;41154;45.394;5.734;2023-04-16T00:14:33;4.03;;;2.20;;
55288;SDS011;41154;45.394;5.734;2023-04-16T00:20:53;2.75;;;2.08;;
55288;SDS011;41154;45.394;5.734;2023-04-16T00:23:19;2.53;;;1.60;;
55288;SDS011;41154;45.394;5.734;2023-04-16T00:31:06;3.05;;;2.30;;
55288;SDS011;41154;45.394;5.734;2023-04-16T00:33:32;2.60;;;1.92;;
55288;SDS011;41154;45.394;5.734;2023-04-16T00:35:59;4.43;;;2.65;;
55288;SDS011;41154;45.394;5.734;2023-04-16T00:38:24;3.35;;;2.00;;
55288;SDS011;41154;45.394;5.734;2023-04-16T00:40:55;3.33;;;2.47;;
55288;SDS011;41154;45.394;5.734;2023-04-16T00:43:24;2.95;;;2.20;;
55288;SDS011;41154;45.394;5.734;2023-04-16T00:45:51;3.28;;;2.17;;
55288;SDS011;41154;45.394;5.734;2023-04-16T00:48:19;4.22;;;2.10;;
55288;SDS011;41154;45.394;5.734;2023-04-16T00:50:45;4.57;;;2.40;;
55288;SDS011;41154;45.394;5.734;2023-04-16T00:53:12;3.70;;;2.20;;
55288;SDS011;41154;45.394;5.734;2023-04-16T00:55:39;3.63;;;2.53;;
55288;SDS011;41154;45.394;5.734;2023-04-16T00:58:05;3.05;;;1.90;;
55288;SDS011;41154;45.394;5.734;2023-04-16T01:00:31;4.30;;;2.50;;
55288;SDS011;41154;45.394;5.734;2023-04-16T01:02:57;3.92;;;2.47;;
55288;SDS011;41154;45.394;5.734;2023-04-16T01:05:25;3.38;;;2.35;;
55288;SDS011;41154;45.394;5.734;2023-04-16T01:07:51;3.72;;;2.42;;
55288;SDS011;41154;45.394;5.734;2023-04-16T01:10:16;4.18;;;2.75;;
55288;SDS011;41154;45.394;5.734;2023-04-16T01:12:42;3.28;;;2.25;;
55288;SDS011;41154;45.394;5.734;2023-04-16T01:15:08;4.35;;;2.58;;
55288;SDS011;41154;45.394;5.734;2023-04-16T01:17:35;3.72;;;2.30;;
55288;SDS011;41154;45.394;5.734;2023-04-16T01:20:01;4.18;;;2.20;;
55288;SDS011;41154;45.394;5.734;2023-04-16T01:22:27;4.30;;;2.58;;
55288;SDS011;41154;45.394;5.734;2023-04-16T01:24:53;2.78;;;2.30;;
55288;SDS011;41154;45.394;5.734;2023-04-16T01:27:19;4.05;;;2.83;;
55288;SDS011;41154;45.394;5.734;2023-04-16T01:29:45;4.85;;;2.70;;
55288;SDS011;41154;45.394;5.734;2023-04-16T01:32:16;4.38;;;2.80;;
55288;SDS011;41154;45.394;5.734;2023-04-16T01:34:42;5.28;;;2.83;;
55288;SDS011;41154;45.394;5.734;2023-04-16T01:37:08;3.97;;;3.00;;
55288;SDS011;41154;45.394;5.734;2023-04-16T01:39:35;5.07;;;2.92;;
55288;SDS011;41154;45.394;5.734;2023-04-16T01:42:00;4.55;;;2.78;;
55288;SDS011;41154;45.394;5.734;2023-04-16T01:44:26;6.15;;;3.30;;
55288;SDS011;41154;45.394;5.734;2023-04-16T01:46:53;4.57;;;2.95;;
55288;SDS011;41154;45.394;5.734;2023-04-16T01:49:20;4.38;;;3.00;;
55288;SDS011;41154;45.394;5.734;2023-04-16T01:51:46;4.63;;;3.17;;
55288;SDS011;41154;45.394;5.734;2023-04-16T01:54:12;4.55;;;2.53;;
55288;SDS011;41154;45.394;5.734;2023-04-16T01:56:38;5.40;;;2.58;;
55288;SDS011;41154;45.394;5.734;2023-04-16T01:59:04;5.20;;;3.00;;
55288;SDS011;41154;45.394;5.734;2023-04-16T02:01:36;3.85;;;2.53;;
55288;SDS011;41154;45.394;5.734;2023-04-16T02:04:02;3.83;;;2.35;;
55288;SDS011;41154;45.394;5.734;2023-04-16T02:06:28;3.10;;;2.30;;
55288;SDS011;41154;45.394;5.734;2023-04-16T02:08:54;6.38;;;2.70;;
55288;SDS011;41154;45.394;5.734;2023-04-16T02:11:20;4.13;;;2.55;;
55288;SDS011;41154;45.394;5.734;2023-04-16T02:13:47;3.35;;;2.17;;
55288;SDS011;41154;45.394;5.734;2023-04-16T02:16:14;3.90;;;2.30;;
55288;SDS011;41154;45.394;5.734;2023-04-16T02:18:48;3.95;;;2.28;;
55288;SDS011;41154;45.394;5.734;2023-04-16T02:21:20;4.75;;;2.42;;
55288;SDS011;41154;45.394;5.734;2023-04-16T02:23:49;4.22;;;2.17;;
55288;SDS011;41154;45.394;5.734;2023-04-16T02:26:18;3.47;;;2.05;;
55288;SDS011;41154;45.394;5.734;2023-04-16T02:28:45;4.47;;;2.33;;
55288;SDS011;41154;45.394;5.734;2023-04-16T02:31:12;3.28;;;2.35;;
55288;SDS011;41154;45.394;5.734;2023-04-16T02:33:42;3.10;;;2.05;;
55288;SDS011;41154;45.394;5.734;2023-04-16T02:36:08;4.38;;;2.58;;
55288;SDS011;41154;45.394;5.734;2023-04-16T02:38:35;3.63;;;2.28;;
55288;SDS011;41154;45.394;5.734;2023-04-16T02:41:01;4.82;;;2.58;;
55288;SDS011;41154;45.394;5.734;2023-04-16T02:43:27;2.72;;;1.77;;
55288;SDS011;41154;45.394;5.734;2023-04-16T02:45:53;5.63;;;2.60;;
55288;SDS011;41154;45.394;5.734;2023-04-16T02:48:19;3.95;;;2.40;;
55288;SDS011;41154;45.394;5.734;2023-04-16T02:50:45;4.28;;;2.25;;
55288;SDS011;41154;45.394;5.734;2023-04-16T02:53:10;3.53;;;2.10;;
55288;SDS011;41154;45.394;5.734;2023-04-16T02:55:36;6.15;;;3.58;;
55288;SDS011;41154;45.394;5.734;2023-04-16T02:58:02;4.93;;;2.72;;
55288;SDS011;41154;45.394;5.734;2023-04-16T03:00:29;3.65;;;2.40;;
55288;SDS011;41154;45.394;5.734;2023-04-16T03:02:55;5.70;;;2.85;;
55288;SDS011;41154;45.394;5.734;2023-04-16T03:05:21;4.63;;;2.58;;
55288;SDS011;41154;45.394;5.734;2023-04-16T03:07:47;4.95;;;2.42;;
55288;SDS011;41154;45.394;5.734;2023-04-16T03:10:14;3.70;;;2.25;;
55288;SDS011;41154;45.394;5.734;2023-04-16T03:12:41;3.38;;;2.10;;
55288;SDS011;41154;45.394;5.734;2023-04-16T03:15:07;6.05;;;2.53;;
55288;SDS011;41154;45.394;5.734;2023-04-16T03:17:33;3.42;;;1.92;;
55288;SDS011;41154;45.394;5.734;2023-04-16T03:20:00;2.85;;;2.00;;
55288;SDS011;41154;45.394;5.734;2023-04-16T03:22:26;3.45;;;2.28;;
55288;SDS011;41154;45.394;5.734;2023-04-16T03:24:51;2.58;;;1.73;;
55288;SDS011;41154;45.394;5.734;2023-04-16T03:27:17;2.42;;;1.58;;
55288;SDS011;41154;45.394;5.734;2023-04-16T03:29:44;2.60;;;1.60;;
55288;SDS011;41154;45.394;5.734;2023-04-16T03:32:10;3.60;;;1.70;;
55288;SDS011;41154;45.394;5.734;2023-04-16T03:34:37;4.60;;;2.13;;
55288;SDS011;41154;45.394;5.734;2023-04-16T03:37:03;3.78;;;1.80;;
55288;SDS011;41154;45.394;5.734;2023-04-16T03:39:30;2.45;;;1.92;;
55288;SDS011;41154;45.394;5.734;2023-04-16T03:41:57;2.97;;;1.45;;
55288;SDS011;41154;45.394;5.734;2023-04-16T03:44:22;3.10;;;1.55;;
55288;SDS011;41154;45.394;5.734;2023-04-16T03:46:49;3.28;;;1.30;;
55288;SDS011;41154;45.394;5.734;2023-04-16T03:49:14;3.50;;;1.70;;
55288;SDS011;41154;45.394;5.734;2023-04-16T03:51:40;2.95;;;1.73;;
55288;SDS011;41154;45.394;5.734;2023-04-16T03:54:06;2.58;;;1.70;;
55288;SDS011;41154;45.394;5.734;2023-04-16T03:56:32;2.17;;;1.40;;
55288;SDS011;41154;45.394;5.734;2023-04-16T03:58:57;1.98;;;1.30;;
55288;SDS011;41154;45.394;5.734;2023-04-16T04:01:23;2.58;;;1.63;;
55288;SDS011;41154;45.394;5.734;2023-04-16T04:03:51;2.88;;;1.33;;
55288;SDS011;41154;45.394;5.734;2023-04-16T04:06:17;6.45;;;1.92;;
55288;SDS011;41154;45.394;5.734;2023-04-16T04:08:42;9.10;;;2.30;;
55288;SDS011;41154;45.394;5.734;2023-04-16T04:11:08;5.55;;;1.48;;
55288;SDS011;41154;45.394;5.734;2023-04-16T04:13:35;2.83;;;1.70;;
55288;SDS011;41154;45.394;5.734;2023-04-16T04:16:02;1.88;;;1.60;;
55288;SDS011;41154;45.394;5.734;2023-04-16T04:18:28;2.60;;;1.67;;
55288;SDS011;41154;45.394;5.734;2023-04-16T04:20:54;3.30;;;1.98;;
55288;SDS011;41154;45.394;5.734;2023-04-16T04:23:25;2.85;;;1.60;;
55288;SDS011;41154;45.394;5.734;2023-04-16T04:25:51;4.32;;;1.60;;
55288;SDS011;41154;45.394;5.734;2023-04-16T04:28:16;2.97;;;1.50;;
55288;SDS011;41154;45.394;5.734;2023-04-16T04:30:42;2.33;;;1.67;;
55288;SDS011;41154;45.394;5.734;2023-04-16T04:33:09;2.58;;;1.85;;
55288;SDS011;41154;45.394;5.734;2023-04-16T04:35:36;2.95;;;1.75;;
55288;SDS011;41154;45.394;5.734;2023-04-16T04:38:02;2.95;;;1.85;;
55288;SDS011;41154;45.394;5.734;2023-04-16T04:40:29;3.35;;;2.15;;
55288;SDS011;41154;45.394;5.734;2023-04-16T04:42:55;3.20;;;2.25;;
55288;SDS011;41154;45.394;5.734;2023-04-16T04:45:22;3.88;;;2.15;;
55288;SDS011;41154;45.394;5.734;2023-04-16T04:47:52;3.75;;;2.42;;
55288;SDS011;41154;45.394;5.734;2023-04-16T04:50:18;5.32;;;3.08;;
55288;SDS011;41154;45.394;5.734;2023-04-16T04:52:45;5.00;;;2.95;;
55288;SDS011;41154;45.394;5.734;2023-04-16T04:55:12;4.97;;;3.22;;
55288;SDS011;41154;45.394;5.734;2023-04-16T04:57:40;5.55;;;3.53;;
55288;SDS011;41154;45.394;5.734;2023-04-16T05:00:06;5.50;;;3.50;;
55288;SDS011;41154;45.394;5.734;2023-04-16T05:02:46;6.32;;;4.07;;
55288;SDS011;41154;45.394;5.734;2023-04-16T05:05:12;6.35;;;3.55;;
55288;SDS011;41154;45.394;5.734;2023-04-16T05:07:37;5.72;;;3.35;;
55288;SDS011;41154;45.394;5.734;2023-04-16T05:10:03;5.47;;;2.50;;
55288;SDS011;41154;45.394;5.734;2023-04-16T05:12:29;2.95;;;2.25;;
55288;SDS011;41154;45.394;5.734;2023-04-16T05:14:55;3.33;;;2.42;;
55288;SDS011;41154;45.394;5.734;2023-04-16T05:17:21;4.63;;;2.50;;
55288;SDS011;41154;45.394;5.734;2023-04-16T05:19:47;3.38;;;2.30;;
55288;SDS011;41154;45.394;5.734;2023-04-16T05:22:12;3.92;;;2.20;;
55288;SDS011;41154;45.394;5.734;2023-04-16T05:24:38;4.28;;;2.60;;
55288;SDS011;41154;45.394;5.734;2023-04-16T05:27:04;2.95;;;2.13;;
55288;SDS011;41154;45.394;5.734;2023-04-16T05:29:30;4.53;;;2.63;;
55288;SDS011;41154;45.394;5.734;2023-04-16T05:31:56;5.85;;;3.67;;
55288;SDS011;41154;45.394;5.734;2023-04-16T05:34:21;4.93;;;3.58;;
55288;SDS011;41154;45.394;5.734;2023-04-16T05:36:47;6.65;;;3.88;;
55288;SDS011;41154;45.394;5.734;2023-04-16T05:39:13;5.28;;;2.83;;
55288;SDS011;41154;45.394;5.734;2023-04-16T05:41:38;5.80;;;2.92;;
55288;SDS011;41154;45.394;5.734;2023-04-16T05:44:04;4.40;;;2.80;;
55288;SDS011;41154;45.394;5.734;2023-04-16T05:46:30;3.70;;;2.40;;
55288;SDS011;41154;45.394;5.734;2023-04-16T05:48:55;5.70;;;3.90;;
55288;SDS011;41154;45.394;5.734;2023-04-16T05:51:21;4.07;;;2.80;;
55288;SDS011;41154;45.394;5.734;2023-04-16T05:53:48;6.68;;;3.00;;
55288;SDS011;41154;45.394;5.734;2023-04-16T05:56:14;6.18;;;4.07;;
55288;SDS011;41154;45.394;5.734;2023-04-16T05:58:40;7.15;;;3.88;;
55288;SDS011;41154;45.394;5.734;2023-04-16T06:01:05;5.80;;;4.00;;
55288;SDS011;41154;45.394;5.734;2023-04-16T06:03:31;4.90;;;3.25;;
55288;SDS011;41154;45.394;5.734;2023-04-16T06:05:57;5.85;;;3.88;;
55288;SDS011;41154;45.394;5.734;2023-04-16T06:08:23;4.95;;;3.25;;
55288;SDS011;41154;45.394;5.734;2023-04-16T06:10:49;6.50;;;3.85;;
55288;SDS011;41154;45.394;5.734;2023-04-16T06:13:15;6.75;;;3.50;;
55288;SDS011;41154;45.394;5.734;2023-04-16T06:15:41;4.68;;;3.45;;
55288;SDS011;41154;45.394;5.734;2023-04-16T06:18:06;7.35;;;4.18;;
55288;SDS011;41154;45.394;5.734;2023-04-16T06:20:32;7.28;;;4.38;;
55288;SDS011;41154;45.394;5.734;2023-04-16T06:22:58;9.20;;;4.25;;
55288;SDS011;41154;45.394;5.734;2023-04-16T06:25:24;9.23;;;5.05;;
55288;SDS011;41154;45.394;5.734;2023-04-16T06:27:49;9.20;;;5.93;;
55288;SDS011;41154;45.394;5.734;2023-04-16T06:30:15;8.50;;;5.53;;
55288;SDS011;41154;45.394;5.734;2023-04-16T06:32:41;7.50;;;5.13;;
55288;SDS011;41154;45.394;5.734;2023-04-16T06:35:07;10.27;;;5.70;;
55288;SDS011;41154;45.394;5.734;2023-04-16T06:37:34;7.88;;;4.78;;
55288;SDS011;41154;45.394;5.734;2023-04-16T06:40:00;10.00;;;5.03;;
55288;SDS011;41154;45.394;5.734;2023-04-16T06:42:26;9.73;;;4.82;;
55288;SDS011;41154;45.394;5.734;2023-04-16T06:44:52;8.20;;;4.78;;
55288;SDS011;41154;45.394;5.734;2023-04-16T06:47:18;7.70;;;5.10;;
55288;SDS011;41154;45.394;5.734;2023-04-16T06:49:44;10.18;;;5.55;;
55288;SDS011;41154;45.394;5.734;2023-04-16T06:52:10;7.93;;;5.18;;
55288;SDS011;41154;45.394;5.734;2023-04-16T06:54:36;11.20;;;5.47;;
55288;SDS011;41154;45.394;5.734;2023-04-16T06:57:02;10.05;;;5.25;;
55288;SDS011;41154;45.394;5.734;2023-04-16T06:59:27;10.55;;;5.57;;
55288;SDS011;41154;45.394;5.734;2023-04-16T07:01:53;12.23;;;6.03;;
55288;SDS011;41154;45.394;5.734;2023-04-16T07:04:19;13.98;;;6.28;;
55288;SDS011;41154;45.394;5.734;2023-04-16T07:06:45;7.90;;;5.40;;
55288;SDS011;41154;45.394;5.734;2023-04-16T07:09:11;10.38;;;5.45;;
55288;SDS011;41154;45.394;5.734;2023-04-16T07:11:37;10.02;;;5.68;;
55288;SDS011;41154;45.394;5.734;2023-04-16T07:14:02;17.15;;;7.45;;
55288;SDS011;41154;45.394;5.734;2023-04-16T07:16:28;12.23;;;6.97;;
55288;SDS011;41154;45.394;5.734;2023-04-16T07:18:54;8.98;;;5.80;;
55288;SDS011;41154;45.394;5.734;2023-04-16T07:21:20;10.20;;;6.07;;
55288;SDS011;41154;45.394;5.734;2023-04-16T07:23:46;9.60;;;6.20;;
55288;SDS011;41154;45.394;5.734;2023-04-16T07:26:12;8.48;;;5.72;;
55288;SDS011;41154;45.394;5.734;2023-04-16T07:28:37;10.05;;;6.60;;
55288;SDS011;41154;45.394;5.734;2023-04-16T07:31:03;8.55;;;5.75;;
55288;SDS011;41154;45.394;5.734;2023-04-16T07:33:29;8.68;;;5.88;;
55288;SDS011;41154;45.394;5.734;2023-04-16T07:35:55;10.40;;;6.65;;
55288;SDS011;41154;45.394;5.734;2023-04-16T07:38:20;12.82;;;7.07;;
55288;SDS011;41154;45.394;5.734;2023-04-16T07:40:46;9.30;;;6.35;;
55288;SDS011;41154;45.394;5.734;2023-04-16T07:43:12;11.57;;;6.50;;
55288;SDS011;41154;45.394;5.734;2023-04-16T07:45:40;10.23;;;6.53;;
55288;SDS011;41154;45.394;5.734;2023-04-16T07:48:06;10.15;;;6.60;;
55288;SDS011;41154;45.394;5.734;2023-04-16T07:50:32;9.60;;;6.07;;
55288;SDS011;41154;45.394;5.734;2023-04-16T07:52:58;10.85;;;6.38;;
55288;SDS011;41154;45.394;5.734;2023-04-16T07:55:23;10.90;;;6.05;;
55288;SDS011;41154;45.394;5.734;2023-04-16T07:57:49;8.80;;;5.72;;
55288;SDS011;41154;45.394;5.734;2023-04-16T08:00:15;14.57;;;6.60;;
55288;SDS011;41154;45.394;5.734;2023-04-16T08:02:41;12.20;;;6.15;;
55288;SDS011;41154;45.394;5.734;2023-04-16T08:05:08;8.95;;;6.03;;
55288;SDS011;41154;45.394;5.734;2023-04-16T08:07:33;10.88;;;6.03;;
55288;SDS011;41154;45.394;5.734;2023-04-16T08:09:59;8.65;;;5.60;;
55288;SDS011;41154;45.394;5.734;2023-04-16T08:12:25;10.23;;;7.07;;
55288;SDS011;41154;45.394;5.734;2023-04-16T08:14:51;7.30;;;5.20;;
55288;SDS011;41154;45.394;5.734;2023-04-16T08:17:17;9.13;;;5.22;;
55288;SDS011;41154;45.394;5.734;2023-04-16T08:19:43;12.30;;;6.15;;
55288;SDS011;41154;45.394;5.734;2023-04-16T08:22:10;8.70;;;5.97;;
55288;SDS011;41154;45.394;5.734;2023-04-16T08:24:40;10.75;;;6.63;;
55288;SDS011;41154;45.394;5.734;2023-04-16T08:27:05;9.93;;;6.13;;
55288;SDS011;41154;45.394;5.734;2023-04-16T08:29:31;11.30;;;6.47;;
55288;SDS011;41154;45.394;5.734;2023-04-16T08:32:00;11.73;;;6.88;;
55288;SDS011;41154;45.394;5.734;2023-04-16T08:34:26;12.35;;;6.68;;
55288;SDS011;41154;45.394;5.734;2023-04-16T08:36:53;11.88;;;6.70;;
55288;SDS011;41154;45.394;5.734;2023-04-16T08:39:18;10.65;;;6.55;;
55288;SDS011;41154;45.394;5.734;2023-04-16T08:41:45;11.82;;;6.90;;
55288;SDS011;41154;45.394;5.734;2023-04-16T08:44:27;10.85;;;6.82;;
55288;SDS011;41154;45.394;5.734;2023-04-16T08:46:59;12.55;;;6.28;;
55288;SDS011;41154;45.394;5.734;2023-04-16T08:49:25;11.43;;;6.47;;
55288;SDS011;41154;45.394;5.734;2023-04-16T08:51:51;10.27;;;6.00;;
55288;SDS011;41154;45.394;5.734;2023-04-16T08:56:52;10.77;;;6.38;;
55288;SDS011;41154;45.394;5.734;2023-04-16T08:59:18;9.32;;;6.03;;
55288;SDS011;41154;45.394;5.734;2023-04-16T09:01:44;11.18;;;6.80;;
55288;SDS011;41154;45.394;5.734;2023-04-16T09:04:13;11.88;;;6.75;;
55288;SDS011;41154;45.394;5.734;2023-04-16T09:06:41;11.30;;;6.72;;
55288;SDS011;41154;45.394;5.734;2023-04-16T09:09:08;14.18;;;6.82;;
55288;SDS011;41154;45.394;5.734;2023-04-16T09:11:35;12.95;;;6.65;;
55288;SDS011;41154;45.394;5.734;2023-04-16T09:14:03;11.63;;;6.72;;
55288;SDS011;41154;45.394;5.734;2023-04-16T09:16:33;8.75;;;5.93;;
55288;SDS011;41154;45.394;5.734;2023-04-16T09:18:59;9.60;;;6.05;;
55288;SDS011;41154;45.394;5.734;2023-04-16T09:21:25;6.75;;;4.93;;
55288;SDS011;41154;45.394;5.734;2023-04-16T09:23:52;9.43;;;6.20;;
55288;SDS011;41154;45.394;5.734;2023-04-16T09:26:18;9.82;;;6.53;;
55288;SDS011;41154;45.394;5.734;2023-04-16T09:28:45;10.07;;;6.05;;
55288;SDS011;41154;45.394;5.734;2023-04-16T09:31:13;9.98;;;6.07;;
55288;SDS011;41154;45.394;5.734;2023-04-16T09:33:40;9.40;;;6.28;;
55288;SDS011;41154;45.394;5.734;2023-04-16T09:36:07;9.15;;;6.15;;
55288;SDS011;41154;45.394;5.734;2023-04-16T09:41:30;6.77;;;5.03;;
55288;SDS011;41154;45.394;5.734;2023-04-16T09:44:00;7.43;;;5.30;;
55288;SDS011;41154;45.394;5.734;2023-04-16T09:46:29;8.63;;;5.63;;
55288;SDS011;41154;45.394;5.734;2023-04-16T09:48:56;6.55;;;5.20;;
55288;SDS011;41154;45.394;5.734;2023-04-16T09:51:22;8.73;;;5.38;;
55288;SDS011;41154;45.394;5.734;2023-04-16T09:53:55;6.78;;;4.95;;
55288;SDS011;41154;45.394;5.734;2023-04-16T09:56:24;11.93;;;5.57;;
55288;SDS011;41154;45.394;5.734;2023-04-16T09:59:00;10.70;;;4.90;;
55288;SDS011;41154;45.394;5.734;2023-04-16T10:01:26;7.55;;;4.68;;
55288;SDS011;41154;45.394;5.734;2023-04-16T10:03:53;7.78;;;5.10;;
55288;SDS011;41154;45.394;5.734;2023-04-16T10:06:22;4.90;;;4.03;;
55288;SDS011;41154;45.394;5.734;2023-04-16T10:08:50;6.80;;;4.90;;
55288;SDS011;41154;45.394;5.734;2023-04-16T10:11:22;5.30;;;4.15;;
55288;SDS011;41154;45.394;5.734;2023-04-16T10:13:48;6.28;;;4.70;;
55288;SDS011;41154;45.394;5.734;2023-04-16T10:16:15;6.03;;;3.38;;
55288;SDS011;41154;45.394;5.734;2023-04-16T10:18:42;6.90;;;3.65;;
55288;SDS011;41154;45.394;5.734;2023-04-16T10:21:10;4.22;;;3.35;;
55288;SDS011;41154;45.394;5.734;2023-04-16T10:23:40;5.45;;;3.53;;
55288;SDS011;41154;45.394;5.734;2023-04-16T10:26:07;4.25;;;3.30;;
55288;SDS011;41154;45.394;5.734;2023-04-16T10:28:33;8.82;;;4.40;;
55288;SDS011;41154;45.394;5.734;2023-04-16T10:31:00;6.40;;;4.13;;
55288;SDS011;41154;45.394;5.734;2023-04-16T10:33:31;6.05;;;3.72;;
55288;SDS011;41154;45.394;5.734;2023-04-16T10:38:48;6.70;;;4.20;;
55288;SDS011;41154;45.394;5.734;2023-04-16T10:41:18;5.57;;;4.00;;
55288;SDS011;41154;45.394;5.734;2023-04-16T10:44:02;5.25;;;4.05;;
55288;SDS011;41154;45.394;5.734;2023-04-16T10:46:37;7.22;;;3.58;;
55288;SDS011;41154;45.394;5.734;2023-04-16T10:49:23;5.95;;;3.95;;
55288;SDS011;41154;45.394;5.734;2023-04-16T10:51:57;6.18;;;3.78;;
55288;SDS011;41154;45.394;5.734;2023-04-16T10:54:26;7.35;;;4.30;;
55288;SDS011;41154;45.394;5.734;2023-04-16T10:56:57;8.07;;;4.57;;
55288;SDS011;41154;45.394;5.734;2023-04-16T10:59:24;7.88;;;4.82;;
55288;SDS011;41154;45.394;5.734;2023-04-16T11:01:55;5.80;;;4.55;;
55288;SDS011;41154;45.394;5.734;2023-04-16T11:14:53;7.78;;;3.85;;
55288;SDS011;41154;45.394;5.734;2023-04-16T11:17:25;5.78;;;3.88;;
55288;SDS011;41154;45.394;5.734;2023-04-16T11:19:54;5.20;;;3.97;;
55288;SDS011;41154;45.394;5.734;2023-04-16T11:22:20;5.35;;;3.67;;
55288;SDS011;41154;45.394;5.734;2023-04-16T11:24:46;4.07;;;3.55;;
55288;SDS011;41154;45.394;5.734;2023-04-16T11:27:17;4.22;;;3.60;;
55288;SDS011;41154;45.394;5.734;2023-04-16T11:29:43;8.77;;;4.05;;
55288;SDS011;41154;45.394;5.734;2023-04-16T11:32:09;5.60;;;3.72;;
55288;SDS011;41154;45.394;5.734;2023-04-16T11:34:44;4.10;;;3.40;;
55288;SDS011;41154;45.394;5.734;2023-04-16T11:37:10;6.32;;;3.80;;
55288;SDS011;41154;45.394;5.734;2023-04-16T11:39:46;7.28;;;4.25;;
55288;SDS011;41154;45.394;5.734;2023-04-16T11:42:19;11.57;;;4.72;;
55288;SDS011;41154;45.394;5.734;2023-04-16T11:44:50;8.13;;;4.80;;
55288;SDS011;41154;45.394;5.734;2023-04-16T11:47:19;9.90;;;6.47;;
55288;SDS011;41154;45.394;5.734;2023-04-16T11:49:46;7.95;;;5.50;;
55288;SDS011;41154;45.394;5.734;2023-04-16T11:52:12;5.95;;;4.50;;
55288;SDS011;41154;45.394;5.734;2023-04-16T11:54:38;7.50;;;4.35;;
55288;SDS011;41154;45.394;5.734;2023-04-16T11:57:03;6.43;;;3.70;;
55288;SDS011;41154;45.394;5.734;2023-04-16T11:59:29;4.85;;;3.50;;
55288;SDS011;41154;45.394;5.734;2023-04-16T12:01:55;5.43;;;3.78;;
55288;SDS011;41154;45.394;5.734;2023-04-16T12:04:25;3.88;;;3.28;;
55288;SDS011;41154;45.394;5.734;2023-04-16T12:09:32;5.00;;;3.45;;
55288;SDS011;41154;45.394;5.734;2023-04-16T12:12:00;5.10;;;3.10;;
55288;SDS011;41154;45.394;5.734;2023-04-16T12:14:26;4.25;;;3.40;;
55288;SDS011;41154;45.394;5.734;2023-04-16T12:16:52;5.32;;;3.72;;
55288;SDS011;41154;45.394;5.734;2023-04-16T12:19:19;6.80;;;3.65;;
55288;SDS011;41154;45.394;5.734;2023-04-16T12:21:45;4.53;;;3.40;;
55288;SDS011;41154;45.394;5.734;2023-04-16T12:24:14;4.75;;;3.90;;
55288;SDS011;41154;45.394;5.734;2023-04-16T12:26:45;6.30;;;3.22;;
55288;SDS011;41154;45.394;5.734;2023-04-16T12:29:13;4.63;;;3.95;;
55288;SDS011;41154;45.394;5.734;2023-04-16T12:31:46;6.60;;;3.42;;
55288;SDS011;41154;45.394;5.734;2023-04-16T12:34:13;4.90;;;3.33;;
55288;SDS011;41154;45.394;5.734;2023-04-16T12:36:42;4.95;;;3.45;;
55288;SDS011;41154;45.394;5.734;2023-04-16T12:39:09;5.45;;;3.40;;
55288;SDS011;41154;45.394;5.734;2023-04-16T12:41:37;6.13;;;3.33;;
55288;SDS011;41154;45.394;5.734;2023-04-16T12:44:10;5.13;;;4.05;;
55288;SDS011;41154;45.394;5.734;2023-04-16T12:46:38;4.30;;;3.60;;
55288;SDS011;41154;45.394;5.734;2023-04-16T12:49:04;6.78;;;3.80;;
55288;SDS011;41154;45.394;5.734;2023-04-16T12:51:30;4.65;;;3.20;;
55288;SDS011;41154;45.394;5.734;2023-04-16T12:53:57;6.45;;;3.45;;
55288;SDS011;41154;45.394;5.734;2023-04-16T12:56:23;4.35;;;2.95;;
55288;SDS011;41154;45.394;5.734;2023-04-16T12:58:49;7.90;;;3.55;;
55288;SDS011;41154;45.394;5.734;2023-04-16T13:01:17;7.43;;;3.95;;
55288;SDS011;41154;45.394;5.734;2023-04-16T13:03:46;14.85;;;11.07;;
55288;SDS011;41154;45.394;5.734;2023-04-16T13:06:12;5.72;;;3.70;;
55288;SDS011;41154;45.394;5.734;2023-04-16T13:08:39;5.47;;;4.18;;
55288;SDS011;41154;45.394;5.734;2023-04-16T13:11:05;5.38;;;3.88;;
55288;SDS011;41154;45.394;5.734;2023-04-16T13:13:32;7.55;;;4.35;;
55288;SDS011;41154;45.394;5.734;2023-04-16T13:15:58;5.93;;;4.10;;
55288;SDS011;41154;45.394;5.734;2023-04-16T13:18:24;9.63;;;4.50;;
55288;SDS011;41154;45.394;5.734;2023-04-16T13:20:50;6.20;;;4.47;;
55288;SDS011;41154;45.394;5.734;2023-04-16T13:23:16;6.40;;;4.03;;
55288;SDS011;41154;45.394;5.734;2023-04-16T13:25:42;4.97;;;3.78;;
55288;SDS011;41154;45.394;5.734;2023-04-16T13:28:07;5.85;;;3.53;;
55288;SDS011;41154;45.394;5.734;2023-04-16T13:30:33;5.22;;;3.60;;
55288;SDS011;41154;45.394;5.734;2023-04-16T13:32:59;5.35;;;3.70;;
55288;SDS011;41154;45.394;5.734;2023-04-16T13:35:25;5.78;;;3.35;;
55288;SDS011;41154;45.394;5.734;2023-04-16T13:37:51;6.10;;;3.80;;
55288;SDS011;41154;45.394;5.734;2023-04-16T13:40:17;6.75;;;4.25;;
55288;SDS011;41154;45.394;5.734;2023-04-16T13:42:43;4.47;;;3.33;;
55288;SDS011;41154;45.394;5.734;2023-04-16T13:45:09;5.05;;;3.22;;
55288;SDS011;41154;45.394;5.734;2023-04-16T13:47:37;6.47;;;3.47;;
55288;SDS011;41154;45.394;5.734;2023-04-16T13:50:04;10.00;;;5.00;;
55288;SDS011;41154;45.394;5.734;2023-04-16T13:52:30;7.53;;;4.30;;
55288;SDS011;41154;45.394;5.734;2023-04-16T13:54:56;9.07;;;4.28;;
55288;SDS011;41154;45.394;5.734;2023-04-16T13:57:22;7.22;;;3.63;;
55288;SDS011;41154;45.394;5.734;2023-04-16T13:59:48;7.18;;;4.32;;
55288;SDS011;41154;45.394;5.734;2023-04-16T14:02:14;9.63;;;4.60;;
55288;SDS011;41154;45.394;5.734;2023-04-16T14:04:40;5.63;;;4.03;;
55288;SDS011;41154;45.394;5.734;2023-04-16T14:07:06;9.38;;;5.97;;
55288;SDS011;41154;45.394;5.734;2023-04-16T14:09:31;13.00;;;9.30;;
55288;SDS011;41154;45.394;5.734;2023-04-16T14:11:57;7.22;;;5.03;;
55288;SDS011;41154;45.394;5.734;2023-04-16T14:14:23;9.00;;;5.40;;
55288;SDS011;41154;45.394;5.734;2023-04-16T14:16:50;9.23;;;6.20;;
55288;SDS011;41154;45.394;5.734;2023-04-16T14:19:15;7.85;;;4.70;;
55288;SDS011;41154;45.394;5.734;2023-04-16T14:21:41;9.30;;;5.22;;
55288;SDS011;41154;45.394;5.734;2023-04-16T14:24:07;8.95;;;5.78;;
55288;SDS011;41154;45.394;5.734;2023-04-16T14:26:33;9.38;;;5.47;;
55288;SDS011;41154;45.394;5.734;2023-04-16T14:28:59;8.98;;;5.40;;
55288;SDS011;41154;45.394;5.734;2023-04-16T14:31:25;8.85;;;4.93;;
55288;SDS011;41154;45.394;5.734;2023-04-16T14:33:51;7.15;;;4.93;;
55288;SDS011;41154;45.394;5.734;2023-04-16T14:36:17;6.50;;;4.80;;
55288;SDS011;41154;45.394;5.734;2023-04-16T14:38:42;7.35;;;5.60;;
55288;SDS011;41154;45.394;5.734;2023-04-16T14:41:08;10.48;;;5.80;;
55288;SDS011;41154;45.394;5.734;2023-04-16T14:43:36;10.88;;;6.25;;
55288;SDS011;41154;45.394;5.734;2023-04-16T14:46:03;9.93;;;5.63;;
55288;SDS011;41154;45.394;5.734;2023-04-16T14:48:30;11.05;;;5.50;;
55288;SDS011;41154;45.394;5.734;2023-04-16T14:50:56;7.18;;;4.22;;
55288;SDS011;41154;45.394;5.734;2023-04-16T14:53:22;6.20;;;4.70;;
55288;SDS011;41154;45.394;5.734;2023-04-16T14:55:50;10.50;;;5.40;;
55288;SDS011;41154;45.394;5.734;2023-04-16T14:58:16;7.80;;;4.95;;
55288;SDS011;41154;45.394;5.734;2023-04-16T15:00:42;8.50;;;5.18;;
55288;SDS011;41154;45.394;5.734;2023-04-16T15:03:07;7.45;;;4.80;;
55288;SDS011;41154;45.394;5.734;2023-04-16T15:05:34;7.85;;;5.20;;
55288;SDS011;41154;45.394;5.734;2023-04-16T15:08:00;8.98;;;5.07;;
55288;SDS011;41154;45.394;5.734;2023-04-16T15:10:26;10.98;;;5.40;;
55288;SDS011;41154;45.394;5.734;2023-04-16T15:12:52;8.77;;;4.72;;
55288;SDS011;41154;45.394;5.734;2023-04-16T15:15:18;7.28;;;5.13;;